Terminal Aerodrome Forecast
Issued by NWS

Home | Current Version | Previous Version | Text Only | Print | Product List | Glossary On
Versions: 1 2 3 4 5 6 7 8 9 10 11 12 13 14 15
000
FTAK31 PAJN 221131
TAFAPG
TAF
PAPG 221131Z 2212/2312 27004KT P6SM BCFG OVC120
      TEMPO 2212/2216 1 1/2SM BR SCT001 OVC120
     FM221600 25003KT P6SM VCSH BKN060 OVC090
     FM222000 17003KT 4SM -SN SCT015 BKN020
     FM230300 16005KT 2SM -SN BKN015 OVC025
     FM230900 19005KT 4SM -SN OVC015
      AMD LTD TO CLD VIS AND WIND 2212/2215=

USA.gov is the U.S. government's official web portal to all federal, state and local government web resources and services.